Gantt, Alabama
Current Conditions -  °F | °C
As of 2:56 AM on Saturday 22 Nov 2014 (Local Time) from K79J Reporting Station
Clear Clear  
Wind Chill: 48°   Ceiling: Unl
Heat Index: 48°   Visibility: 10mi
Dew Point: 36°   Wind: 3mph
Humidity: 63%   Direction: 130°SE
Pressure: 30.32"   Gusts: NA
Location:  31.41°N, 86.48°W
Report Text: K79J 220856Z AUTO 13003KT 10SM CLR 09/02 A3032 RMK AO2 SLP264 T00890022 56005
Loading
Personal Weather Stations






























Interactive Weather Map New forecast layout! Learn more

10-Day Weather Forecast

Advertisements
Track Severe Weather on mobile